createdAt,value
2018-12-19T00:00:33.631Z,94.2
2018-12-19T00:01:36.600Z,94.1
2018-12-19T00:02:39.051Z,94.5
2018-12-19T00:03:40.465Z,94.9
2018-12-19T00:04:46.206Z,94.3
2018-12-19T00:05:48.760Z,94.9
2018-12-19T00:06:50.181Z,94.6
2018-12-19T00:08:05.759Z,94.9
2018-12-19T00:09:07.157Z,94.4
2018-12-19T00:10:36.020Z,94.2
2018-12-19T00:11:37.453Z,94.4
2018-12-19T00:12:40.539Z,94.3
2018-12-19T00:14:06.011Z,94.7
2018-12-19T00:15:36.365Z,94.7
2018-12-19T00:16:40.888Z,94.4
2018-12-19T00:17:42.875Z,94.5
2018-12-19T00:18:44.295Z,94.5
2018-12-19T00:20:07.387Z,94.6
2018-12-19T00:21:08.901Z,94.7
2018-12-19T00:22:10.324Z,95.3
2018-12-19T00:23:35.419Z,95.2
2018-12-19T00:24:36.861Z,95.0
2018-12-19T00:25:39.652Z,95.2
2018-12-19T00:26:41.573Z,94.4
2018-12-19T00:27:44.954Z,94.7
2018-12-19T00:28:50.606Z,94.9
2018-12-19T00:29:53.825Z,94.1
2018-12-19T00:30:55.315Z,94.3
2018-12-19T00:31:56.775Z,93.8
2018-12-19T00:32:59.034Z,93.9
2018-12-19T00:34:00.441Z,93.6
2018-12-19T00:35:06.206Z,94.4
2018-12-19T00:36:12.253Z,94.3
2018-12-19T00:37:13.739Z,94.3
2018-12-19T00:38:16.389Z,94.9
2018-12-19T00:39:18.548Z,94.5
2018-12-19T00:40:20.013Z,94.4
2018-12-19T00:41:22.583Z,95.2
2018-12-19T00:42:25.797Z,94.7
2018-12-19T00:43:27.295Z,94.8
2018-12-19T00:44:32.679Z,94.6
2018-12-19T00:45:34.941Z,94.2
2018-12-19T00:46:37.076Z,94.2
2018-12-19T00:47:39.942Z,95.3
2018-12-19T00:48:41.380Z,95.2
2018-12-19T00:49:42.779Z,94.9
2018-12-19T00:50:46.485Z,95.2
2018-12-19T00:51:47.982Z,94.7
2018-12-19T00:52:49.381Z,95.5
2018-12-19T00:53:50.806Z,95.3
2018-12-19T00:54:52.185Z,95.3
2018-12-19T00:55:55.975Z,95.3
2018-12-19T00:56:57.460Z,95.4
2018-12-19T00:58:00.690Z,95.9
2018-12-19T00:59:03.775Z,95.8
2018-12-19T01:00:05.706Z,95.9
2018-12-19T01:01:09.269Z,95.7
2018-12-19T01:02:11.576Z,95.9
2018-12-19T01:03:13.561Z,95.4
2018-12-19T01:04:15.477Z,95.8
2018-12-19T01:05:18.150Z,95.9
2018-12-19T01:06:20.345Z,95.6
2018-12-19T01:07:22.321Z,95.7
2018-12-19T01:08:24.557Z,95.6
2018-12-19T01:09:26.009Z,95.6
2018-12-19T01:10:27.619Z,95.6
2018-12-19T01:11:29.784Z,95.9
2018-12-19T01:12:31.926Z,96.0
2018-12-19T01:13:33.338Z,96.2
2018-12-19T01:14:39.479Z,96.2
2018-12-19T01:15:41.378Z,95.9
2018-12-19T01:16:42.832Z,95.8
2018-12-19T01:17:44.239Z,96.0
2018-12-19T01:18:45.656Z,95.9
2018-12-19T01:19:51.757Z,96.0
2018-12-19T01:20:53.551Z,95.9
2018-12-19T01:21:55.733Z,96.1
2018-12-19T01:23:00.341Z,95.7
2018-12-19T01:24:02.421Z,96.7
2018-12-19T01:25:06.228Z,96.8
2018-12-19T01:26:07.661Z,95.9
2018-12-19T01:27:14.636Z,95.8
2018-12-19T01:28:16.041Z,95.9
2018-12-19T01:29:18.166Z,96.7
2018-12-19T01:30:22.790Z,96.1
2018-12-19T01:31:24.205Z,96.7
2018-12-19T01:32:27.546Z,96.4
2018-12-19T01:33:29.928Z,96.4
2018-12-19T01:34:36.547Z,96.7
2018-12-19T01:35:38.005Z,96.6
2018-12-19T01:37:01.700Z,96.5
2018-12-19T01:38:06.052Z,96.3
2018-12-19T01:39:08.677Z,96.4
2018-12-19T01:40:10.937Z,96.4
2018-12-19T01:41:12.320Z,96.6
2018-12-19T01:42:30.607Z,96.7
2018-12-19T01:43:32.223Z,96.9
2018-12-19T01:44:34.472Z,96.7
2018-12-19T01:45:36.758Z,96.5
2018-12-19T01:46:38.952Z,96.5
2018-12-19T01:47:46.911Z,97.2
2018-12-19T01:48:48.375Z,97.0
2018-12-19T01:49:49.746Z,97.0
2018-12-19T01:50:53.681Z,96.9
2018-12-19T01:51:55.137Z,97.1
2018-12-19T01:52:56.563Z,96.8
2018-12-19T01:54:00.142Z,96.8
2018-12-19T01:55:01.523Z,97.0
2018-12-19T01:56:04.625Z,96.5
2018-12-19T01:57:06.770Z,96.8
2018-12-19T01:58:12.024Z,97.0
2018-12-19T01:59:13.411Z,97.2
2018-12-19T02:00:14.832Z,97.1
2018-12-19T02:01:16.562Z,97.2
2018-12-19T02:02:20.857Z,97.7
2018-12-19T02:03:22.301Z,97.2
2018-12-19T02:04:23.692Z,97.1
2018-12-19T02:05:26.081Z,97.6
2018-12-19T02:06:28.428Z,97.2
2018-12-19T02:07:30.393Z,97.8
2018-12-19T02:08:32.793Z,97.6
2018-12-19T02:09:34.186Z,97.0
2018-12-19T02:10:35.847Z,96.8
2018-12-19T02:11:37.265Z,96.6
2018-12-19T02:12:38.688Z,96.6
2018-12-19T02:13:40.775Z,97.0
2018-12-19T02:14:43.281Z,97.1
2018-12-19T02:15:44.717Z,96.7
2018-12-19T02:16:46.137Z,97.2
2018-12-19T02:17:48.912Z,97.0
2018-12-19T02:18:50.306Z,96.9
2018-12-19T02:19:51.699Z,97.0
2018-12-19T02:20:53.987Z,96.9
2018-12-19T02:21:56.333Z,96.6
2018-12-19T02:22:57.761Z,97.0
2018-12-19T02:24:00.442Z,96.6
2018-12-19T02:25:01.844Z,96.8
2018-12-19T02:26:04.432Z,97.4
2018-12-19T02:27:09.127Z,96.7
2018-12-19T02:28:10.606Z,96.6
2018-12-19T02:29:11.968Z,96.7
2018-12-19T02:30:14.182Z,96.7
2018-12-19T02:31:15.628Z,96.7
2018-12-19T02:32:18.739Z,96.7
2018-12-19T02:33:36.907Z,96.7
2018-12-19T02:34:38.344Z,96.6
2018-12-19T02:35:39.826Z,96.7
2018-12-19T02:36:42.943Z,96.7
2018-12-19T02:37:45.383Z,96.5
2018-12-19T02:39:05.902Z,96.9
2018-12-19T02:40:07.283Z,96.6
2018-12-19T02:41:08.725Z,96.4
2018-12-19T02:42:17.703Z,96.4
2018-12-19T02:43:19.140Z,96.4
2018-12-19T02:44:20.518Z,95.9
2018-12-19T02:45:28.990Z,95.9
2018-12-19T02:46:30.383Z,95.9
2018-12-19T02:47:33.778Z,96.1
2018-12-19T02:48:36.462Z,95.8
2018-12-19T02:49:39.610Z,95.3
2018-12-19T02:50:41.021Z,95.5
2018-12-19T02:51:42.411Z,95.5
2018-12-19T02:52:53.238Z,94.9
2018-12-19T02:53:55.235Z,95.6
2018-12-19T02:54:56.660Z,95.4
2018-12-19T02:56:02.966Z,95.0
2018-12-19T02:57:04.397Z,95.3
2018-12-19T02:58:06.712Z,95.3
2018-12-19T02:59:12.205Z,95.2
2018-12-19T03:00:13.595Z,95.0
2018-12-19T03:01:16.157Z,95.2
2018-12-19T03:02:17.770Z,94.2
2018-12-19T03:03:25.775Z,94.2
2018-12-19T03:04:27.201Z,93.9
2018-12-19T03:05:28.613Z,93.8
2018-12-19T03:06:35.547Z,93.2
2018-12-19T03:07:36.963Z,92.9
2018-12-19T03:08:41.615Z,92.9
2018-12-19T03:09:43.957Z,92.9
2018-12-19T03:10:48.248Z,92.7
2018-12-19T03:11:51.645Z,92.9
2018-12-19T03:12:53.066Z,92.5
2018-12-19T03:13:54.475Z,92.6
2018-12-19T03:14:56.438Z,92.8
2018-12-19T03:16:00.645Z,92.6
2018-12-19T03:17:02.116Z,92.7
2018-12-19T03:18:05.346Z,92.7
2018-12-19T03:19:06.746Z,92.7
2018-12-19T03:20:11.002Z,92.9
2018-12-19T03:21:15.057Z,92.5
2018-12-19T03:22:19.878Z,92.6
2018-12-19T03:23:23.964Z,92.5
2018-12-19T03:24:26.770Z,92.8
2018-12-19T03:25:29.575Z,92.7
2018-12-19T03:26:31.000Z,92.6
2018-12-19T03:27:36.936Z,92.2
2018-12-19T03:28:42.147Z,92.1
2018-12-19T03:29:43.526Z,91.4
2018-12-19T03:30:44.932Z,90.9
2018-12-19T03:31:59.412Z,91.0
2018-12-19T03:33:02.543Z,90.5
2018-12-19T03:34:03.961Z,89.1
2018-12-19T03:35:09.677Z,88.9
2018-12-19T03:36:11.020Z,88.1
2018-12-19T03:37:17.560Z,87.7
2018-12-19T03:38:19.036Z,87.3
2018-12-19T03:39:20.445Z,87.6
2018-12-19T03:40:21.856Z,87.9
2018-12-19T03:41:23.283Z,88.2
2018-12-19T03:42:24.747Z,89.0
2018-12-19T03:43:26.147Z,89.0
2018-12-19T03:44:28.656Z,89.6
2018-12-19T03:45:31.334Z,90.0
2018-12-19T03:46:32.768Z,90.1
2018-12-19T03:47:35.312Z,90.3
2018-12-19T03:48:36.683Z,90.5
2018-12-19T03:49:39.016Z,90.3
2018-12-19T03:50:41.098Z,89.6
2018-12-19T03:51:43.128Z,89.8
2018-12-19T03:52:45.145Z,89.8
2018-12-19T03:53:47.475Z,89.2
2018-12-19T03:54:48.822Z,88.9
2018-12-19T03:55:50.221Z,88.6
2018-12-19T03:56:51.653Z,88.8
2018-12-19T03:57:53.054Z,89.2
2018-12-19T03:58:54.499Z,89.5
2018-12-19T03:59:56.752Z,89.6
2018-12-19T04:00:58.818Z,89.8
2018-12-19T04:02:00.945Z,90.2
2018-12-19T04:03:02.892Z,90.3
2018-12-19T04:04:04.730Z,90.3
2018-12-19T04:05:06.167Z,90.1
2018-12-19T04:06:07.720Z,90.8
2018-12-19T04:07:09.832Z,91.0
2018-12-19T04:08:11.239Z,90.8
2018-12-19T04:09:12.663Z,90.8
2018-12-19T04:10:14.073Z,90.8
2018-12-19T04:11:16.324Z,90.8
2018-12-19T04:12:18.263Z,90.8
2018-12-19T04:13:20.189Z,90.6
2018-12-19T04:14:21.613Z,91.1
2018-12-19T04:15:25.530Z,90.9
2018-12-19T04:16:28.053Z,90.6
2018-12-19T04:17:31.842Z,90.8
2018-12-19T04:18:42.179Z,90.9
2018-12-19T04:19:45.362Z,91.7
2018-12-19T04:20:47.260Z,91.4
2018-12-19T04:22:28.117Z,91.4
2018-12-19T04:23:29.469Z,91.2
2018-12-19T04:24:30.813Z,91.3
2018-12-19T04:25:32.154Z,91.6
2018-12-19T04:26:34.478Z,91.5
2018-12-19T04:27:35.830Z,91.7
2018-12-19T04:28:37.183Z,91.9
2018-12-19T04:29:38.548Z,91.7
2018-12-19T04:30:39.904Z,91.3
2018-12-19T04:31:41.255Z,91.5
2018-12-19T04:32:42.608Z,91.3
2018-12-19T04:33:43.970Z,91.5
2018-12-19T04:34:45.288Z,91.1
2018-12-19T04:35:46.659Z,91.5
2018-12-19T04:36:48.040Z,91.6
2018-12-19T04:37:49.395Z,90.7
2018-12-19T04:38:50.735Z,91.0
2018-12-19T04:39:52.099Z,90.1
2018-12-19T04:40:53.461Z,90.3
2018-12-19T04:41:54.823Z,90.3
2018-12-19T04:42:56.684Z,90.3
2018-12-19T04:43:58.035Z,90.5
2018-12-19T04:44:59.374Z,90.1
2018-12-19T04:46:00.751Z,90.8
2018-12-19T04:47:02.833Z,90.1
2018-12-19T04:48:04.180Z,90.6
2018-12-19T04:49:05.535Z,90.9
2018-12-19T04:50:06.891Z,90.8
2018-12-19T04:51:08.948Z,90.6
2018-12-19T04:52:10.329Z,91.1
2018-12-19T04:53:11.681Z,90.8
2018-12-19T04:54:13.079Z,90.8
2018-12-19T04:55:14.399Z,90.6
2018-12-19T04:56:15.739Z,91.0
2018-12-19T04:57:17.102Z,91.0
2018-12-19T04:58:18.452Z,91.1
2018-12-19T04:59:19.801Z,90.9
2018-12-19T05:00:21.150Z,90.8
2018-12-19T05:01:22.499Z,90.8
2018-12-19T05:02:23.858Z,90.9
2018-12-19T05:03:25.204Z,91.1
2018-12-19T05:04:26.573Z,90.9
2018-12-19T05:05:27.964Z,90.7
2018-12-19T05:06:29.317Z,90.6
2018-12-19T05:07:30.659Z,91.1
2018-12-19T05:08:31.996Z,91.5
2018-12-19T05:09:33.354Z,91.5
2018-12-19T05:10:34.752Z,91.3
2018-12-19T05:11:36.099Z,91.5
2018-12-19T05:12:38.299Z,91.3
2018-12-19T05:13:39.655Z,91.3
2018-12-19T05:14:41.543Z,91.2
2018-12-19T05:15:42.901Z,91.4
2018-12-19T05:16:44.279Z,91.3
2018-12-19T05:17:46.592Z,90.9
2018-12-19T05:18:48.522Z,90.7
2018-12-19T05:19:49.879Z,90.7
2018-12-19T05:20:51.234Z,90.6
2018-12-19T05:21:52.600Z,90.0
2018-12-19T05:22:53.960Z,90.3
2018-12-19T05:23:55.359Z,90.2
2018-12-19T05:24:56.855Z,90.3
2018-12-19T05:25:58.284Z,90.0
2018-12-19T05:26:59.736Z,89.9
2018-12-19T05:28:01.170Z,90.2
2018-12-19T05:29:02.555Z,89.5
2018-12-19T05:30:03.966Z,89.1
2018-12-19T05:31:05.455Z,89.3
2018-12-19T05:32:07.806Z,89.1
2018-12-19T05:33:09.210Z,89.9
2018-12-19T05:34:10.634Z,89.6
2018-12-19T05:35:11.997Z,89.1
2018-12-19T05:36:13.350Z,89.1
2018-12-19T05:37:14.734Z,89.3
2018-12-19T05:38:16.091Z,89.0
2018-12-19T05:39:17.521Z,89.0
2018-12-19T05:40:19.222Z,89.1
2018-12-19T05:41:20.327Z,89.6
2018-12-19T05:42:21.777Z,90.1
2018-12-19T05:43:23.807Z,90.0
2018-12-19T05:44:25.286Z,90.3
2018-12-19T05:45:26.769Z,90.4
2018-12-19T05:46:28.179Z,90.4
2018-12-19T05:47:29.691Z,90.0
2018-12-19T05:48:31.145Z,90.9
2018-12-19T05:49:32.630Z,90.7
2018-12-19T05:50:34.152Z,91.0
2018-12-19T05:51:35.627Z,90.9
2018-12-19T05:52:37.155Z,91.2
2018-12-19T05:53:38.729Z,90.9
2018-12-19T05:54:40.277Z,91.0
2018-12-19T05:55:41.755Z,90.9
2018-12-19T05:56:43.263Z,91.3
2018-12-19T05:57:44.740Z,91.4
2018-12-19T05:58:46.227Z,91.9
2018-12-19T05:59:47.693Z,92.0
2018-12-19T06:00:49.213Z,91.8
2018-12-19T06:01:50.665Z,92.5
2018-12-19T06:02:52.143Z,92.3
2018-12-19T06:03:53.606Z,92.6
2018-12-19T06:04:55.087Z,93.0
2018-12-19T06:05:58.005Z,93.1
2018-12-19T06:06:59.499Z,93.8
2018-12-19T06:08:01.737Z,93.4
2018-12-19T06:09:03.260Z,93.3
2018-12-19T06:10:04.751Z,92.9
2018-12-19T06:11:06.296Z,93.1
2018-12-19T06:12:08.515Z,93.4
2018-12-19T06:13:10.031Z,93.6
2018-12-19T06:14:11.517Z,94.0
2018-12-19T06:15:13.018Z,93.9
2018-12-19T06:16:14.556Z,93.7
2018-12-19T06:17:16.776Z,94.4
2018-12-19T06:18:18.832Z,93.8
2018-12-19T06:19:20.281Z,93.9
2018-12-19T06:20:21.757Z,94.1
2018-12-19T06:21:23.239Z,94.1
2018-12-19T06:22:24.772Z,94.1
2018-12-19T06:23:26.260Z,94.1
2018-12-19T06:24:28.500Z,94.0
2018-12-19T06:25:29.956Z,94.2
2018-12-19T06:26:31.468Z,94.1
2018-12-19T06:27:32.972Z,93.3
2018-12-19T06:28:34.441Z,93.4
2018-12-19T06:29:35.895Z,93.3
2018-12-19T06:30:37.395Z,92.9
2018-12-19T06:31:39.629Z,93.1
2018-12-19T06:32:41.180Z,93.1
2018-12-19T06:33:42.638Z,92.2
2018-12-19T06:34:44.245Z,92.1
2018-12-19T06:35:45.751Z,91.7
2018-12-19T06:36:47.362Z,90.9
2018-12-19T06:37:48.854Z,90.9
2018-12-19T06:38:50.436Z,90.8
2018-12-19T06:39:52.647Z,90.8
2018-12-19T06:40:54.128Z,90.6
2018-12-19T06:41:55.616Z,90.9
2018-12-19T06:42:57.140Z,90.2
2018-12-19T06:43:58.665Z,91.1
2018-12-19T06:45:00.174Z,90.8
2018-12-19T06:46:01.678Z,91.3
2018-12-19T06:47:03.971Z,90.8
2018-12-19T06:48:06.420Z,91.0
2018-12-19T06:49:08.869Z,90.6
2018-12-19T06:50:10.409Z,90.4
2018-12-19T06:51:12.403Z,89.3
2018-12-19T06:52:13.862Z,89.4
2018-12-19T06:53:15.565Z,88.8
2018-12-19T06:54:17.087Z,88.7
2018-12-19T06:55:18.647Z,88.8
2018-12-19T06:56:20.154Z,89.1
2018-12-19T06:57:21.610Z,88.1
2018-12-19T06:58:23.091Z,88.2
2018-12-19T06:59:25.188Z,88.7
2018-12-19T07:00:26.679Z,87.9
2018-12-19T07:01:28.136Z,87.5
2018-12-19T07:02:29.646Z,87.6
2018-12-19T07:03:31.842Z,87.9
2018-12-19T07:04:33.351Z,87.9
2018-12-19T07:05:34.856Z,87.9
2018-12-19T07:06:36.385Z,87.2
2018-12-19T07:07:37.856Z,87.9
2018-12-19T07:08:41.414Z,88.3
2018-12-19T07:09:40.752Z,89.0
2018-12-19T07:10:42.192Z,89.0
2018-12-19T07:11:43.696Z,89.2
2018-12-19T07:12:45.187Z,89.6
2018-12-19T07:13:47.346Z,90.0
2018-12-19T07:14:49.137Z,90.6
2018-12-19T07:15:50.604Z,89.9
2018-12-19T07:16:52.091Z,90.1
2018-12-19T07:17:53.597Z,89.9
2018-12-19T07:18:55.067Z,90.0
2018-12-19T07:19:56.544Z,90.3
2018-12-19T07:20:58.081Z,91.3
2018-12-19T07:21:59.543Z,90.8
2018-12-19T07:23:01.005Z,90.7
2018-12-19T07:24:02.490Z,91.4
2018-12-19T07:25:03.952Z,91.8
2018-12-19T07:26:05.394Z,91.6
2018-12-19T07:27:06.910Z,91.8
2018-12-19T07:28:08.395Z,91.8
2018-12-19T07:29:09.912Z,91.8
2018-12-19T07:30:11.400Z,91.7
2018-12-19T07:31:12.881Z,91.7
2018-12-19T07:32:14.340Z,92.1
2018-12-19T07:33:15.876Z,92.0
2018-12-19T07:34:17.367Z,92.6
2018-12-19T07:35:18.833Z,92.4
2018-12-19T07:36:21.071Z,92.5
2018-12-19T07:37:23.395Z,92.6
2018-12-19T07:38:25.847Z,93.2
2018-12-19T07:39:27.271Z,92.7
2018-12-19T07:40:29.593Z,92.3
2018-12-19T07:41:31.120Z,92.6
2018-12-19T07:42:32.637Z,91.9
2018-12-19T07:43:34.126Z,92.3
2018-12-19T07:44:35.592Z,92.2
2018-12-19T07:45:37.038Z,92.4
2018-12-19T07:46:38.523Z,92.6
2018-12-19T07:47:40.036Z,92.5
2018-12-19T07:48:41.512Z,92.2
2018-12-19T07:49:43.018Z,92.8
2018-12-19T07:50:44.593Z,92.5
2018-12-19T07:51:46.127Z,92.6
2018-12-19T07:52:47.601Z,92.1
2018-12-19T07:53:49.810Z,92.6
2018-12-19T07:54:51.307Z,92.5
2018-12-19T07:55:52.752Z,92.3
2018-12-19T07:56:54.263Z,92.6
2018-12-19T07:57:55.788Z,92.5
2018-12-19T07:58:57.208Z,92.3
2018-12-19T07:59:58.767Z,92.5
2018-12-19T08:01:00.212Z,92.4
2018-12-19T08:02:01.711Z,92.7
2018-12-19T08:03:03.214Z,92.4
2018-12-19T08:04:04.767Z,92.2
2018-12-19T08:05:06.236Z,92.4
2018-12-19T08:06:07.756Z,92.4
2018-12-19T08:07:09.277Z,92.3
2018-12-19T08:08:10.785Z,92.7
2018-12-19T08:09:12.301Z,91.9
2018-12-19T08:10:14.347Z,92.1
2018-12-19T08:11:17.499Z,92.7
2018-12-19T08:12:19.013Z,92.7
2018-12-19T08:13:21.231Z,93.1
2018-12-19T08:14:22.560Z,93.2
2018-12-19T08:15:24.044Z,93.1
2018-12-19T08:16:25.488Z,93.1
2018-12-19T08:17:26.953Z,93.3
2018-12-19T08:18:28.556Z,93.3
2018-12-19T08:19:30.063Z,94.1
2018-12-19T08:20:31.538Z,94.0
2018-12-19T08:21:33.028Z,94.4
2018-12-19T08:22:35.483Z,94.8
2018-12-19T08:23:36.968Z,94.6
2018-12-19T08:24:38.432Z,95.1
2018-12-19T08:25:39.949Z,95.2
2018-12-19T08:26:41.451Z,95.5
2018-12-19T08:27:42.887Z,95.8
2018-12-19T08:28:45.277Z,95.9
2018-12-19T08:29:46.738Z,95.5
2018-12-19T08:30:48.248Z,95.8
2018-12-19T08:31:49.738Z,95.8
2018-12-19T08:32:51.248Z,95.6
2018-12-19T08:33:52.752Z,96.3
2018-12-19T08:34:54.248Z,96.6
2018-12-19T08:35:55.811Z,96.7
2018-12-19T08:36:57.283Z,96.6
2018-12-19T08:37:58.781Z,96.9
2018-12-19T08:39:00.257Z,96.7
2018-12-19T08:40:01.735Z,97.2
2018-12-19T08:41:03.229Z,97.0
2018-12-19T08:42:04.688Z,97.6
2018-12-19T08:43:06.267Z,97.6
2018-12-19T08:44:07.706Z,98.1
2018-12-19T08:45:09.177Z,97.9
2018-12-19T08:46:14.501Z,98.0
2018-12-19T08:47:13.879Z,98.4
2018-12-19T08:48:15.362Z,98.3
2018-12-19T08:49:17.634Z,99.5
2018-12-19T08:50:19.089Z,99.0
2018-12-19T08:51:20.622Z,99.3
2018-12-19T08:52:22.738Z,99.1
2018-12-19T08:53:23.534Z,99.0
2018-12-19T08:54:24.998Z,99.3
2018-12-19T08:55:26.568Z,99.5
2018-12-19T08:56:28.043Z,99.8
2018-12-19T08:57:29.545Z,99.7
2018-12-19T08:58:31.044Z,99.8
2018-12-19T08:59:32.628Z,100.0
2018-12-19T09:00:34.103Z,100.0
2018-12-19T09:01:35.616Z,100.0
2018-12-19T09:02:37.158Z,99.6
2018-12-19T09:03:38.599Z,99.9
2018-12-19T09:04:40.122Z,99.6
2018-12-19T09:05:42.243Z,99.6
2018-12-19T09:06:43.727Z,99.7
2018-12-19T09:07:45.218Z,100.0
2018-12-19T09:08:46.799Z,100.0
2018-12-19T09:09:48.277Z,100.0
2018-12-19T09:10:49.800Z,100.0
2018-12-19T09:11:51.355Z,100.0
2018-12-19T09:12:52.803Z,100.0
2018-12-19T09:13:55.034Z,100.0
2018-12-19T09:14:56.543Z,100.0
2018-12-19T09:15:58.066Z,100.0
2018-12-19T09:16:59.554Z,100.0
2018-12-19T09:18:00.997Z,100.0
2018-12-19T09:19:02.598Z,100.0
2018-12-19T09:20:04.083Z,100.0
2018-12-19T09:21:05.680Z,100.0
2018-12-19T09:22:07.153Z,100.0
2018-12-19T09:23:08.688Z,100.0
2018-12-19T09:24:10.155Z,100.0
2018-12-19T09:25:12.502Z,100.0
2018-12-19T09:26:15.248Z,100.0
2018-12-19T09:27:16.990Z,100.0
2018-12-19T09:28:19.493Z,100.0
2018-12-19T09:29:20.994Z,100.0
2018-12-19T09:30:22.509Z,100.0
2018-12-19T09:31:24.062Z,100.0
2018-12-19T09:32:25.623Z,100.0
2018-12-19T09:33:27.526Z,100.0
2018-12-19T09:34:28.564Z,100.0
2018-12-19T09:35:30.025Z,100.0
2018-12-19T09:36:31.546Z,100.0
2018-12-19T09:37:33.035Z,100.0
2018-12-19T09:38:34.510Z,100.0
2018-12-19T09:39:36.054Z,100.0
2018-12-19T09:40:37.584Z,100.0
2018-12-19T09:41:39.078Z,100.0
2018-12-19T09:42:40.590Z,100.0
2018-12-19T09:43:42.140Z,100.0
2018-12-19T09:44:44.043Z,100.0
2018-12-19T09:45:47.694Z,100.0
2018-12-19T09:46:49.207Z,100.0
2018-12-19T09:47:51.666Z,99.7
2018-12-19T09:48:53.177Z,99.4
2018-12-19T09:49:54.743Z,99.4
2018-12-19T09:50:56.308Z,99.6
2018-12-19T09:51:58.037Z,99.3
2018-12-19T09:52:59.603Z,99.4
2018-12-19T09:54:01.171Z,99.4
2018-12-19T09:55:02.743Z,99.4
2018-12-19T09:56:04.232Z,98.8
2018-12-19T09:57:05.704Z,98.6
2018-12-19T09:58:07.194Z,98.6
2018-12-19T09:59:08.668Z,98.5
2018-12-19T10:00:10.991Z,98.2
2018-12-19T10:01:12.493Z,98.6
2018-12-19T10:02:13.963Z,98.5
2018-12-19T10:03:15.673Z,98.7
2018-12-19T10:04:17.265Z,99.3
2018-12-19T10:05:18.802Z,99.4
2018-12-19T10:06:21.133Z,99.3
2018-12-19T10:07:22.666Z,99.1
2018-12-19T10:08:24.238Z,99.0
2018-12-19T10:09:25.743Z,99.0
2018-12-19T10:10:28.163Z,99.2
2018-12-19T10:11:29.650Z,99.5
2018-12-19T10:12:33.757Z,98.4
2018-12-19T10:13:35.049Z,98.5
2018-12-19T10:14:36.554Z,98.4
2018-12-19T10:15:38.039Z,98.5
2018-12-19T10:16:39.552Z,99.3
2018-12-19T10:17:41.589Z,99.5
2018-12-19T10:18:43.092Z,98.8
2018-12-19T10:19:44.603Z,98.5
2018-12-19T10:20:46.138Z,98.6
2018-12-19T10:21:48.496Z,98.5
2018-12-19T10:22:49.929Z,98.4
2018-12-19T10:23:51.403Z,98.3
2018-12-19T10:24:52.889Z,98.4
2018-12-19T10:25:54.362Z,98.4
2018-12-19T10:26:55.809Z,98.3
2018-12-19T10:27:58.008Z,98.3
2018-12-19T10:28:59.514Z,98.5
2018-12-19T10:30:00.986Z,98.7
2018-12-19T10:31:02.507Z,98.5
2018-12-19T10:32:04.011Z,98.5
2018-12-19T10:33:05.565Z,98.4
2018-12-19T10:34:07.765Z,98.4
2018-12-19T10:35:08.587Z,98.3
2018-12-19T10:36:10.135Z,98.4
2018-12-19T10:37:11.569Z,98.4
2018-12-19T10:38:14.028Z,98.3
2018-12-19T10:39:15.544Z,98.4
2018-12-19T10:40:17.737Z,98.4
2018-12-19T10:41:25.320Z,98.0
2018-12-19T10:42:21.569Z,98.4
2018-12-19T10:43:23.028Z,98.1
2018-12-19T10:44:24.521Z,98.2
2018-12-19T10:45:25.995Z,98.3
2018-12-19T10:46:27.529Z,98.5
2018-12-19T10:47:29.005Z,98.4
2018-12-19T10:48:30.489Z,98.4
2018-12-19T10:49:31.981Z,98.4
2018-12-19T10:50:33.437Z,98.5
2018-12-19T10:51:34.922Z,98.4
2018-12-19T10:52:36.445Z,98.5
2018-12-19T10:53:37.934Z,98.5
2018-12-19T10:54:39.429Z,98.5
2018-12-19T10:55:40.946Z,98.3
2018-12-19T10:56:42.442Z,98.4
2018-12-19T10:57:44.763Z,98.4
2018-12-19T10:58:47.105Z,98.4
2018-12-19T10:59:49.480Z,97.7
2018-12-19T11:00:50.970Z,97.9
2018-12-19T11:01:52.444Z,98.2
2018-12-19T11:02:55.564Z,98.2
2018-12-19T11:03:57.059Z,98.6
2018-12-19T11:04:59.503Z,98.6
2018-12-19T11:06:01.783Z,98.6
2018-12-19T11:07:03.220Z,98.5
2018-12-19T11:08:04.705Z,98.3
2018-12-19T11:09:06.195Z,98.4
2018-12-19T11:10:07.679Z,98.8
2018-12-19T11:11:10.026Z,98.5
2018-12-19T11:12:11.496Z,98.5
2018-12-19T11:13:13.046Z,98.4
2018-12-19T11:14:14.514Z,98.4
2018-12-19T11:15:16.030Z,98.4
2018-12-19T11:16:17.514Z,98.4
2018-12-19T11:17:18.953Z,99.3
2018-12-19T11:18:20.436Z,99.1
2018-12-19T11:19:21.918Z,99.2
2018-12-19T11:20:23.376Z,99.2
2018-12-19T11:21:24.864Z,99.2
2018-12-19T11:22:26.349Z,99.2
2018-12-19T11:23:27.856Z,99.3
2018-12-19T11:24:29.340Z,99.3
2018-12-19T11:25:31.313Z,99.3
2018-12-19T11:26:32.839Z,99.6
2018-12-19T11:27:34.386Z,99.5
2018-12-19T11:29:17.095Z,98.8
2018-12-19T11:30:19.260Z,98.4
2018-12-19T11:31:20.658Z,98.6
2018-12-19T11:32:22.469Z,98.4
2018-12-19T11:33:23.839Z,98.7
2018-12-19T11:34:25.256Z,98.5
2018-12-19T11:35:27.410Z,98.6
2018-12-19T11:36:29.020Z,98.4
2018-12-19T11:37:30.480Z,98.4
2018-12-19T11:38:31.990Z,99.3
2018-12-19T11:39:33.500Z,98.8
2018-12-19T11:40:34.944Z,99.3
2018-12-19T11:41:38.962Z,99.2
2018-12-19T11:42:37.819Z,99.5
2018-12-19T11:43:39.214Z,99.5
2018-12-19T11:44:40.646Z,99.7
2018-12-19T11:45:42.070Z,99.1
2018-12-19T11:46:45.195Z,99.2
2018-12-19T11:47:46.679Z,99.3
2018-12-19T11:48:48.204Z,99.1
2018-12-19T11:49:50.345Z,99.2
2018-12-19T11:50:52.256Z,99.5
2018-12-19T11:51:53.679Z,99.4
2018-12-19T11:52:55.759Z,99.4
2018-12-19T11:53:57.142Z,99.6
2018-12-19T11:54:58.550Z,99.5
2018-12-19T11:55:59.944Z,99.4
2018-12-19T11:57:01.322Z,99.4
2018-12-19T11:58:02.751Z,99.4
2018-12-19T11:59:04.136Z,99.4
2018-12-19T12:00:07.420Z,99.5
2018-12-19T12:01:08.879Z,99.0
2018-12-19T12:02:10.331Z,99.3
2018-12-19T12:03:11.706Z,99.3
2018-12-19T12:04:13.119Z,99.5
2018-12-19T12:05:14.565Z,98.8
2018-12-19T12:06:16.047Z,98.4
2018-12-19T12:07:17.490Z,98.3
2018-12-19T12:08:18.990Z,98.5
2018-12-19T12:09:20.520Z,98.5
2018-12-19T12:10:22.052Z,98.4
2018-12-19T12:11:23.445Z,98.5
2018-12-19T12:12:25.755Z,98.2
2018-12-19T12:13:27.148Z,98.2
2018-12-19T12:14:28.536Z,98.5
2018-12-19T12:15:29.935Z,98.0
2018-12-19T12:16:31.519Z,98.6
2018-12-19T12:17:32.976Z,98.5
2018-12-19T12:18:35.794Z,98.5
2018-12-19T12:19:37.235Z,98.8
2018-12-19T12:20:38.729Z,99.5
2018-12-19T12:21:40.136Z,98.6
2018-12-19T12:22:42.160Z,99.4
2018-12-19T12:23:47.306Z,99.4
2018-12-19T12:24:45.047Z,98.5
2018-12-19T12:25:47.152Z,98.7
2018-12-19T12:26:48.568Z,99.4
2018-12-19T12:27:50.113Z,99.4
2018-12-19T12:28:51.751Z,99.2
2018-12-19T12:29:54.161Z,99.2
2018-12-19T12:30:55.553Z,99.4
2018-12-19T12:31:56.989Z,99.5
2018-12-19T12:32:58.371Z,99.2
2018-12-19T12:33:59.795Z,99.4
2018-12-19T12:35:01.187Z,99.0
2018-12-19T12:36:02.584Z,99.1
2018-12-19T12:37:04.095Z,99.5
2018-12-19T12:38:05.613Z,99.1
2018-12-19T12:39:08.045Z,99.4
2018-12-19T12:40:09.580Z,99.5
2018-12-19T12:41:11.040Z,99.2
2018-12-19T12:42:12.451Z,99.3
2018-12-19T12:43:13.895Z,99.3
2018-12-19T12:44:15.290Z,100.0
2018-12-19T12:45:18.276Z,99.8
2018-12-19T12:46:19.702Z,100.0
2018-12-19T12:47:21.773Z,99.9
2018-12-19T12:48:23.201Z,100.0
2018-12-19T12:49:24.639Z,99.8
2018-12-19T12:50:26.081Z,99.8
2018-12-19T12:51:27.686Z,99.9
2018-12-19T12:52:29.306Z,99.7
2018-12-19T12:53:30.878Z,99.8
2018-12-19T12:54:32.358Z,99.9
2018-12-19T12:55:33.992Z,99.7
2018-12-19T12:56:35.889Z,99.8
2018-12-19T12:57:38.074Z,100.0
2018-12-19T12:58:40.197Z,100.0
2018-12-19T12:59:41.725Z,100.0
2018-12-19T13:00:43.258Z,100.0
2018-12-19T13:01:44.764Z,100.0
2018-12-19T13:02:46.272Z,100.0
2018-12-19T13:03:48.552Z,100.0
2018-12-19T13:04:51.319Z,100.0
2018-12-19T13:05:51.478Z,100.0
2018-12-19T13:06:53.046Z,100.0
2018-12-19T13:07:55.601Z,100.0
2018-12-19T13:08:57.347Z,100.0
2018-12-19T13:09:58.811Z,100.0
2018-12-19T13:11:00.353Z,100.0
2018-12-19T13:12:01.830Z,100.0
2018-12-19T13:13:04.092Z,100.0
2018-12-19T13:14:04.981Z,100.0
2018-12-19T13:15:06.506Z,100.0
2018-12-19T13:16:07.981Z,100.0
2018-12-19T13:17:09.539Z,100.0
2018-12-19T13:18:11.032Z,100.0
2018-12-19T13:19:12.468Z,100.0
2018-12-19T13:20:14.000Z,100.0
2018-12-19T13:21:16.427Z,100.0
2018-12-19T13:22:17.906Z,100.0
2018-12-19T13:23:19.337Z,100.0
2018-12-19T13:24:20.736Z,100.0
2018-12-19T13:25:22.273Z,100.0
2018-12-19T13:26:23.697Z,100.0
2018-12-19T13:27:25.101Z,100.0
2018-12-19T13:28:26.462Z,100.0
2018-12-19T13:29:27.835Z,100.0
2018-12-19T13:30:29.210Z,100.0
2018-12-19T13:31:30.646Z,100.0
2018-12-19T13:32:32.064Z,100.0
2018-12-19T13:33:34.188Z,100.0
2018-12-19T13:34:35.666Z,100.0
2018-12-19T13:35:37.156Z,100.0
2018-12-19T13:36:38.618Z,100.0
2018-12-19T13:37:40.376Z,100.0
2018-12-19T13:38:42.143Z,100.0
2018-12-19T13:39:43.889Z,100.0
2018-12-19T13:40:45.402Z,100.0
2018-12-19T13:41:46.878Z,100.0
2018-12-19T13:42:48.289Z,100.0
2018-12-19T13:43:49.732Z,100.0
2018-12-19T13:44:51.294Z,100.0
2018-12-19T13:45:53.050Z,100.0